createdAt,value
2022-09-28T00:00:10.135Z,0.00
2022-09-28T00:00:45.430Z,0.88
2022-09-28T00:01:20.851Z,0.24
2022-09-28T00:01:56.418Z,0.40
2022-09-28T00:02:32.000Z,0.24
2022-09-28T00:03:06.999Z,0.00
2022-09-28T00:03:42.131Z,0.08
2022-09-28T00:04:17.120Z,0.00
2022-09-28T00:04:52.522Z,0.00
2022-09-28T00:05:27.814Z,0.00
2022-09-28T00:06:03.407Z,0.00
2022-09-28T00:06:38.916Z,0.00
2022-09-28T00:07:14.290Z,0.00
2022-09-28T00:07:49.318Z,0.00
2022-09-28T00:08:24.787Z,0.00
2022-09-28T00:09:00.096Z,0.00
2022-09-28T00:09:35.184Z,0.00
2022-09-28T00:10:10.496Z,0.00
2022-09-28T00:10:45.696Z,0.00
2022-09-28T00:11:21.038Z,0.00
2022-09-28T00:11:56.281Z,0.00
2022-09-28T00:12:31.773Z,0.00
2022-09-28T00:13:06.884Z,0.72
2022-09-28T00:13:42.174Z,0.00
2022-09-28T00:14:17.466Z,0.00
2022-09-28T00:14:52.757Z,0.00
2022-09-28T00:15:27.961Z,0.00
2022-09-28T00:16:03.610Z,0.00
2022-09-28T00:16:38.623Z,0.00
2022-09-28T00:17:13.751Z,0.00
2022-09-28T00:17:48.927Z,0.00
2022-09-28T00:18:24.040Z,1.04
2022-09-28T00:18:59.321Z,0.24
2022-09-28T00:19:34.620Z,0.00
2022-09-28T00:20:10.121Z,0.00
2022-09-28T00:20:45.212Z,0.32
2022-09-28T00:21:20.518Z,0.48
2022-09-28T00:21:55.882Z,0.00
2022-09-28T00:22:31.282Z,0.00
2022-09-28T00:23:06.394Z,0.00
2022-09-28T00:23:41.593Z,1.28
2022-09-28T00:24:16.979Z,1.60
2022-09-28T00:24:52.220Z,0.00
2022-09-28T00:25:27.241Z,0.00
2022-09-28T00:26:02.613Z,0.16
2022-09-28T00:26:38.006Z,0.08
2022-09-28T00:27:13.124Z,0.00
2022-09-28T00:27:48.490Z,0.00
2022-09-28T00:28:23.677Z,0.00
2022-09-28T00:28:59.093Z,0.00
2022-09-28T00:29:34.194Z,0.00
2022-09-28T00:30:09.773Z,0.00
2022-09-28T00:30:44.660Z,0.00
2022-09-28T00:31:20.104Z,0.00
2022-09-28T00:31:55.571Z,0.00
2022-09-28T00:32:30.972Z,0.00
2022-09-28T00:33:06.364Z,0.00
2022-09-28T00:33:41.763Z,0.00
2022-09-28T00:34:17.375Z,0.00
2022-09-28T00:34:53.067Z,0.00
2022-09-28T00:35:28.555Z,0.00
2022-09-28T00:36:03.947Z,0.00
2022-09-28T00:36:39.134Z,0.00
2022-09-28T00:37:14.239Z,1.36
2022-09-28T00:37:49.329Z,0.72
2022-09-28T00:38:24.645Z,0.64
2022-09-28T00:38:59.832Z,0.16
2022-09-28T00:39:35.243Z,0.00
2022-09-28T00:40:10.348Z,1.68
2022-09-28T00:40:45.947Z,0.72
2022-09-28T00:41:21.127Z,0.00
2022-09-28T00:41:56.902Z,0.16
2022-09-28T00:42:32.201Z,0.00
2022-09-28T00:43:07.492Z,0.00
2022-09-28T00:43:42.687Z,0.16
2022-09-28T00:44:17.889Z,0.00
2022-09-28T00:44:53.077Z,0.80
2022-09-28T00:45:28.315Z,0.00
2022-09-28T00:46:03.961Z,0.24
2022-09-28T00:46:39.163Z,1.68
2022-09-28T00:47:14.557Z,1.04
2022-09-28T00:47:49.885Z,0.80
2022-09-28T00:48:25.331Z,2.48
2022-09-28T00:49:00.748Z,1.52
2022-09-28T00:49:35.882Z,1.60
2022-09-28T00:50:11.254Z,2.64
2022-09-28T00:50:46.777Z,1.84
2022-09-28T00:51:22.259Z,0.00
2022-09-28T00:51:57.356Z,0.88
2022-09-28T00:52:32.482Z,0.88
2022-09-28T00:53:07.587Z,0.96
2022-09-28T00:53:43.229Z,2.80
2022-09-28T00:54:18.612Z,0.56
2022-09-28T00:54:53.816Z,0.72
2022-09-28T00:55:29.114Z,0.72
2022-09-28T00:56:04.304Z,0.72
2022-09-28T00:56:39.513Z,2.96
2022-09-28T00:57:14.700Z,1.84
2022-09-28T00:57:49.906Z,1.28
2022-09-28T00:58:25.214Z,1.92
2022-09-28T00:59:00.415Z,0.40
2022-09-28T00:59:35.417Z,0.00
2022-09-28T01:00:10.741Z,1.04
2022-09-28T01:00:45.893Z,0.72
2022-09-28T01:01:21.446Z,0.88
2022-09-28T01:01:56.455Z,2.16
2022-09-28T01:02:31.645Z,0.64
2022-09-28T01:03:06.635Z,0.24
2022-09-28T01:03:41.733Z,0.80
2022-09-28T01:04:17.052Z,2.40
2022-09-28T01:04:52.273Z,0.64
2022-09-28T01:05:27.477Z,0.80
2022-09-28T01:06:02.675Z,0.56
2022-09-28T01:06:38.096Z,2.80
2022-09-28T01:07:13.093Z,2.16
2022-09-28T01:07:48.307Z,0.56
2022-09-28T01:08:23.566Z,2.08
2022-09-28T01:08:58.776Z,1.28
2022-09-28T01:09:33.977Z,0.08
2022-09-28T01:10:09.269Z,2.48
2022-09-28T01:10:44.480Z,1.60
2022-09-28T01:11:19.759Z,2.96
2022-09-28T01:11:55.583Z,2.72
2022-09-28T01:12:31.073Z,0.88
2022-09-28T01:13:06.668Z,1.52
2022-09-28T01:13:41.976Z,0.16
2022-09-28T01:14:17.175Z,0.00
2022-09-28T01:14:52.377Z,0.96
2022-09-28T01:15:27.582Z,1.68
2022-09-28T01:16:02.926Z,0.96
2022-09-28T01:16:38.464Z,0.48
2022-09-28T01:17:13.595Z,0.08
2022-09-28T01:17:49.013Z,0.16
2022-09-28T01:18:24.352Z,2.16
2022-09-28T01:18:59.885Z,1.84
2022-09-28T01:19:35.078Z,2.24
2022-09-28T01:20:10.500Z,4.16
2022-09-28T01:20:45.801Z,3.12
2022-09-28T01:21:20.907Z,3.04
2022-09-28T01:21:56.295Z,0.80
2022-09-28T01:22:31.717Z,1.04
2022-09-28T01:23:07.052Z,3.36
2022-09-28T01:23:42.555Z,0.56
2022-09-28T01:24:17.767Z,0.56
2022-09-28T01:24:53.061Z,0.16
2022-09-28T01:25:28.488Z,0.72
2022-09-28T01:26:03.789Z,0.24
2022-09-28T01:26:38.898Z,1.36
2022-09-28T01:27:13.955Z,3.36
2022-09-28T01:27:49.338Z,3.52
2022-09-28T01:28:24.956Z,2.72
2022-09-28T01:28:59.952Z,0.72
2022-09-28T01:29:35.425Z,0.72
2022-09-28T01:30:10.508Z,0.00
2022-09-28T01:30:46.425Z,0.00
2022-09-28T01:31:21.872Z,0.00
2022-09-28T01:31:56.998Z,0.00
2022-09-28T01:32:32.253Z,0.40
2022-09-28T01:33:07.543Z,0.96
2022-09-28T01:33:43.064Z,3.44
2022-09-28T01:34:18.383Z,1.52
2022-09-28T01:34:53.491Z,0.80
2022-09-28T01:35:28.720Z,0.16
2022-09-28T01:36:04.070Z,1.52
2022-09-28T01:36:39.394Z,2.08
2022-09-28T01:37:14.717Z,0.40
2022-09-28T01:37:49.931Z,1.12
2022-09-28T01:38:25.040Z,1.12
2022-09-28T01:38:59.952Z,0.00
2022-09-28T01:39:35.147Z,0.32
2022-09-28T01:40:10.452Z,1.44
2022-09-28T01:40:45.787Z,3.28
2022-09-28T01:41:20.778Z,1.76
2022-09-28T01:41:55.694Z,5.76
2022-09-28T01:42:31.181Z,4.40
2022-09-28T01:43:06.495Z,5.12
2022-09-28T01:43:41.785Z,1.84
2022-09-28T01:44:17.187Z,3.76
2022-09-28T01:44:52.485Z,3.84
2022-09-28T01:45:27.840Z,2.72
2022-09-28T01:46:03.230Z,0.64
2022-09-28T01:46:38.623Z,0.00
2022-09-28T01:47:13.835Z,0.00
2022-09-28T01:47:49.135Z,0.00
2022-09-28T01:48:24.671Z,0.32
2022-09-28T01:48:59.937Z,0.00
2022-09-28T01:49:35.262Z,0.00
2022-09-28T01:50:10.664Z,0.00
2022-09-28T01:50:45.978Z,0.00
2022-09-28T01:51:21.403Z,0.16
2022-09-28T01:51:56.514Z,0.88
2022-09-28T01:52:31.639Z,0.88
2022-09-28T01:53:06.938Z,1.44
2022-09-28T01:53:42.151Z,3.20
2022-09-28T01:54:17.378Z,3.60
2022-09-28T01:54:53.156Z,0.32
2022-09-28T01:55:28.576Z,2.64
2022-09-28T01:56:03.895Z,4.64
2022-09-28T01:56:39.020Z,2.72
2022-09-28T01:57:14.238Z,1.84
2022-09-28T01:57:49.541Z,2.16
2022-09-28T01:58:24.561Z,0.32
2022-09-28T01:58:59.779Z,0.72
2022-09-28T01:59:35.435Z,1.28
2022-09-28T02:00:10.691Z,2.24
2022-09-28T02:00:45.937Z,3.04
2022-09-28T02:01:21.236Z,2.88
2022-09-28T02:01:56.419Z,1.28
2022-09-28T02:02:31.505Z,2.32
2022-09-28T02:03:06.798Z,2.48
2022-09-28T02:03:41.706Z,3.28
2022-09-28T02:04:16.723Z,4.56
2022-09-28T02:04:51.937Z,6.00
2022-09-28T02:05:27.339Z,3.28
2022-09-28T02:06:02.565Z,2.64
2022-09-28T02:06:37.659Z,1.60
2022-09-28T02:07:12.976Z,2.88
2022-09-28T02:07:48.083Z,3.84
2022-09-28T02:08:23.309Z,1.76
2022-09-28T02:08:58.500Z,0.48
2022-09-28T02:09:34.045Z,1.52
2022-09-28T02:10:09.223Z,0.48
2022-09-28T02:10:44.542Z,0.00
2022-09-28T02:11:19.549Z,0.00
2022-09-28T02:11:54.937Z,0.96
2022-09-28T02:12:30.272Z,1.92
2022-09-28T02:13:05.557Z,2.72
2022-09-28T02:13:40.784Z,1.84
2022-09-28T02:14:15.930Z,0.56
2022-09-28T02:14:51.133Z,1.04
2022-09-28T02:15:26.255Z,3.04
2022-09-28T02:16:01.679Z,2.96
2022-09-28T02:16:36.916Z,0.72
2022-09-28T02:17:12.159Z,3.28
2022-09-28T02:17:47.488Z,4.08
2022-09-28T02:18:22.887Z,3.84
2022-09-28T02:18:58.009Z,1.92
2022-09-28T02:19:33.298Z,1.84
2022-09-28T02:20:08.699Z,1.52
2022-09-28T02:20:43.926Z,2.40
2022-09-28T02:21:19.213Z,1.52
2022-09-28T02:21:54.517Z,0.08
2022-09-28T02:22:29.702Z,2.32
2022-09-28T02:23:05.147Z,2.48
2022-09-28T02:23:40.634Z,1.68
2022-09-28T02:24:20.642Z,1.36
2022-09-28T02:24:51.489Z,2.80
2022-09-28T02:25:26.680Z,2.40
2022-09-28T02:26:01.780Z,4.24
2022-09-28T02:26:37.466Z,4.16
2022-09-28T02:27:12.581Z,4.88
2022-09-28T02:27:48.286Z,5.68
2022-09-28T02:28:23.707Z,4.64
2022-09-28T02:28:59.105Z,2.08
2022-09-28T02:29:34.428Z,3.52
2022-09-28T02:30:09.649Z,2.72
2022-09-28T02:30:44.747Z,0.40
2022-09-28T02:31:20.207Z,1.76
2022-09-28T02:31:55.186Z,5.52
2022-09-28T02:32:30.476Z,2.08
2022-09-28T02:33:05.797Z,2.64
2022-09-28T02:33:41.113Z,2.64
2022-09-28T02:34:16.631Z,2.48
2022-09-28T02:34:51.959Z,1.44
2022-09-28T02:35:27.247Z,0.64
2022-09-28T02:36:02.655Z,1.28
2022-09-28T02:36:37.972Z,0.00
2022-09-28T02:37:13.165Z,1.20
2022-09-28T02:37:48.199Z,1.76
2022-09-28T02:38:23.403Z,0.08
2022-09-28T02:38:59.036Z,0.08
2022-09-28T02:39:34.468Z,0.00
2022-09-28T02:40:09.737Z,0.00
2022-09-28T02:40:44.762Z,0.00
2022-09-28T02:41:20.044Z,0.00
2022-09-28T02:41:55.047Z,0.00
2022-09-28T02:42:30.457Z,0.00
2022-09-28T02:43:05.740Z,0.00
2022-09-28T02:43:40.944Z,0.00
2022-09-28T02:44:16.321Z,1.68
2022-09-28T02:44:51.474Z,2.56
2022-09-28T02:45:27.019Z,1.44
2022-09-28T02:46:02.272Z,0.96
2022-09-28T02:46:37.388Z,0.96
2022-09-28T02:47:12.922Z,0.08
2022-09-28T02:47:47.921Z,0.00
2022-09-28T02:48:41.184Z,0.88
2022-09-28T02:49:19.887Z,4.16
2022-09-28T02:49:34.018Z,4.32
2022-09-28T02:50:09.273Z,4.16
2022-09-28T02:50:44.313Z,2.72
2022-09-28T02:51:19.546Z,1.92
2022-09-28T02:51:54.937Z,1.20
2022-09-28T02:52:29.853Z,0.64
2022-09-28T02:53:05.070Z,1.20
2022-09-28T02:53:40.607Z,2.00
2022-09-28T02:54:18.772Z,4.64
2022-09-28T02:54:51.472Z,3.20
2022-09-28T02:55:26.866Z,1.92
2022-09-28T02:56:01.969Z,2.24
2022-09-28T02:56:37.401Z,3.76
2022-09-28T02:57:12.703Z,5.12
2022-09-28T02:57:48.036Z,4.00
2022-09-28T02:58:23.124Z,5.12
2022-09-28T02:58:58.382Z,2.16
2022-09-28T02:59:33.793Z,3.52
2022-09-28T03:00:08.996Z,1.20
2022-09-28T03:00:44.261Z,4.16
2022-09-28T03:01:19.376Z,2.16
2022-09-28T03:01:54.580Z,4.16
2022-09-28T03:02:29.788Z,3.52
2022-09-28T03:03:04.971Z,0.88
2022-09-28T03:03:40.299Z,3.60
2022-09-28T03:04:15.537Z,5.12
2022-09-28T03:04:51.072Z,3.76
2022-09-28T03:05:26.370Z,3.20
2022-09-28T03:06:01.492Z,3.60
2022-09-28T03:06:37.093Z,3.52
2022-09-28T03:07:12.214Z,2.24
2022-09-28T03:07:47.402Z,3.52
2022-09-28T03:08:23.023Z,2.08
2022-09-28T03:08:58.309Z,2.64
2022-09-28T03:09:33.768Z,1.20
2022-09-28T03:10:08.763Z,2.48
2022-09-28T03:10:43.655Z,0.40
2022-09-28T03:11:18.888Z,0.64
2022-09-28T03:11:54.092Z,1.28
2022-09-28T03:12:29.611Z,0.64
2022-09-28T03:13:04.604Z,1.28
2022-09-28T03:13:39.842Z,2.40
2022-09-28T03:14:15.049Z,1.12
2022-09-28T03:14:50.313Z,1.52
2022-09-28T03:15:25.603Z,1.04
2022-09-28T03:16:01.062Z,1.84
2022-09-28T03:16:36.300Z,2.48
2022-09-28T03:17:11.617Z,2.64
2022-09-28T03:17:46.721Z,3.44
2022-09-28T03:18:22.042Z,3.20
2022-09-28T03:18:57.233Z,3.04
2022-09-28T03:19:32.352Z,2.16
2022-09-28T03:20:07.978Z,0.88
2022-09-28T03:20:43.709Z,2.00
2022-09-28T03:21:18.929Z,0.48
2022-09-28T03:21:54.250Z,2.00
2022-09-28T03:22:29.561Z,1.36
2022-09-28T03:23:40.097Z,0.64
2022-09-28T03:24:15.405Z,0.16
2022-09-28T03:24:50.839Z,2.32
2022-09-28T03:25:26.143Z,0.56
2022-09-28T03:26:01.549Z,0.48
2022-09-28T03:26:36.945Z,2.00
2022-09-28T03:27:12.260Z,2.08
2022-09-28T03:27:47.356Z,0.56
2022-09-28T03:28:22.583Z,0.32
2022-09-28T03:28:57.807Z,1.60
2022-09-28T03:29:33.408Z,1.36
2022-09-28T03:30:08.722Z,2.40
2022-09-28T03:30:43.954Z,1.60
2022-09-28T03:31:19.560Z,0.24
2022-09-28T03:31:54.799Z,0.64
2022-09-28T03:32:29.989Z,2.96
2022-09-28T03:33:05.184Z,1.36
2022-09-28T03:33:40.394Z,3.84
2022-09-28T03:34:15.623Z,4.72
2022-09-28T03:34:50.616Z,1.36
2022-09-28T03:35:25.849Z,2.16
2022-09-28T03:36:01.355Z,3.12
2022-09-28T03:36:36.881Z,3.36
2022-09-28T03:37:12.175Z,3.84
2022-09-28T03:37:47.681Z,3.84
2022-09-28T03:38:22.912Z,1.36
2022-09-28T03:38:57.929Z,0.00
2022-09-28T03:39:33.442Z,3.20
2022-09-28T03:40:08.624Z,2.96
2022-09-28T03:40:44.567Z,3.76
2022-09-28T03:41:19.747Z,2.40
2022-09-28T03:41:54.864Z,3.04
2022-09-28T03:42:30.455Z,1.68
2022-09-28T03:43:05.678Z,0.96
2022-09-28T03:43:40.877Z,1.04
2022-09-28T03:44:16.171Z,2.32
2022-09-28T03:44:51.578Z,3.04
2022-09-28T03:45:26.709Z,1.36
2022-09-28T03:46:02.003Z,1.76
2022-09-28T03:46:37.479Z,1.12
2022-09-28T03:47:12.501Z,2.24
2022-09-28T03:47:47.928Z,3.84
2022-09-28T03:48:25.769Z,1.52
2022-09-28T03:48:58.462Z,1.04
2022-09-28T03:49:34.020Z,2.88
2022-09-28T03:50:09.147Z,4.32
2022-09-28T03:50:44.653Z,2.88
2022-09-28T03:51:19.673Z,1.76
2022-09-28T03:51:54.851Z,2.40
2022-09-28T03:52:30.273Z,2.00
2022-09-28T03:53:05.591Z,2.88
2022-09-28T03:53:40.876Z,0.56
2022-09-28T03:54:16.109Z,1.92
2022-09-28T03:54:51.321Z,0.48
2022-09-28T03:55:26.647Z,1.60
2022-09-28T03:56:02.372Z,4.56
2022-09-28T03:56:37.892Z,3.04
2022-09-28T03:57:13.261Z,3.60
2022-09-28T03:57:48.837Z,2.40
2022-09-28T03:58:24.267Z,4.88
2022-09-28T03:58:59.876Z,6.48
2022-09-28T03:59:35.096Z,4.32
2022-09-28T04:00:10.208Z,2.40
2022-09-28T04:00:45.246Z,3.28
2022-09-28T04:01:20.315Z,1.36
2022-09-28T04:01:55.562Z,0.88
2022-09-28T04:02:30.751Z,2.64
2022-09-28T04:03:05.910Z,4.48
2022-09-28T04:03:41.415Z,3.36
2022-09-28T04:04:16.732Z,0.80
2022-09-28T04:04:52.074Z,1.52
2022-09-28T04:05:27.169Z,1.76
2022-09-28T04:06:02.337Z,5.68
2022-09-28T04:06:37.477Z,5.60
2022-09-28T04:07:12.876Z,5.84
2022-09-28T04:07:48.409Z,3.36
2022-09-28T04:08:23.706Z,5.92
2022-09-28T04:08:58.830Z,5.12
2022-09-28T04:09:34.260Z,2.24
2022-09-28T04:10:09.382Z,2.08
2022-09-28T04:10:44.705Z,2.80
2022-09-28T04:11:19.737Z,3.36
2022-09-28T04:12:03.972Z,1.84
2022-09-28T04:12:30.439Z,2.24
2022-09-28T04:13:06.004Z,1.36
2022-09-28T04:13:41.018Z,1.84
2022-09-28T04:14:16.246Z,1.12
2022-09-28T04:14:51.264Z,1.76
2022-09-28T04:15:26.613Z,0.72
2022-09-28T04:16:01.885Z,2.16
2022-09-28T04:16:37.279Z,0.56
2022-09-28T04:17:12.369Z,3.44
2022-09-28T04:17:47.569Z,1.36
2022-09-28T04:18:22.775Z,1.36
2022-09-28T04:18:58.076Z,5.04
2022-09-28T04:19:33.299Z,3.04
2022-09-28T04:20:08.592Z,0.56
2022-09-28T04:20:43.818Z,0.32
2022-09-28T04:21:19.153Z,0.96
2022-09-28T04:21:54.467Z,2.16
2022-09-28T04:22:29.694Z,2.00
2022-09-28T04:23:04.781Z,1.52
2022-09-28T04:23:39.847Z,4.24
2022-09-28T04:24:15.248Z,3.52
2022-09-28T04:24:50.493Z,5.04
2022-09-28T04:25:25.519Z,0.88
2022-09-28T04:26:00.988Z,6.16
2022-09-28T04:26:36.217Z,4.32
2022-09-28T04:27:11.638Z,4.88
2022-09-28T04:27:47.158Z,4.40
2022-09-28T04:28:22.593Z,2.40
2022-09-28T04:28:59.834Z,2.96
2022-09-28T04:29:33.141Z,2.08
2022-09-28T04:30:08.556Z,2.00
2022-09-28T04:30:43.978Z,0.40
2022-09-28T04:31:19.110Z,4.56
2022-09-28T04:31:54.426Z,4.72
2022-09-28T04:32:29.723Z,5.92
2022-09-28T04:33:05.023Z,8.48
2022-09-28T04:33:40.428Z,2.32
2022-09-28T04:34:15.728Z,2.56
2022-09-28T04:34:50.713Z,2.16
2022-09-28T04:35:26.043Z,4.56
2022-09-28T04:36:01.240Z,1.84
2022-09-28T04:36:36.332Z,2.00
2022-09-28T04:37:11.641Z,3.84
2022-09-28T04:37:46.756Z,2.32
2022-09-28T04:38:35.826Z,2.40
2022-09-28T04:38:57.769Z,2.32
2022-09-28T04:39:33.344Z,3.36
2022-09-28T04:40:08.395Z,0.40
2022-09-28T04:40:43.565Z,2.32
2022-09-28T04:41:18.714Z,0.08
2022-09-28T04:41:54.102Z,0.00
2022-09-28T04:42:29.432Z,3.12
2022-09-28T04:43:04.833Z,2.24
2022-09-28T04:43:40.145Z,1.52
2022-09-28T04:44:15.234Z,3.20
2022-09-28T04:44:50.359Z,0.88
2022-09-28T04:45:25.811Z,0.00
2022-09-28T04:46:01.260Z,0.00
2022-09-28T04:46:36.402Z,0.00
2022-09-28T04:47:11.710Z,0.00
2022-09-28T04:47:46.860Z,0.00
2022-09-28T04:48:22.150Z,0.00
2022-09-28T04:48:57.379Z,1.44
2022-09-28T04:49:32.579Z,0.08
2022-09-28T04:50:07.986Z,0.00
2022-09-28T04:50:43.315Z,0.00
2022-09-28T04:51:18.722Z,0.00
2022-09-28T04:51:54.125Z,1.84
2022-09-28T04:52:29.349Z,2.00
2022-09-28T04:53:04.953Z,0.24
2022-09-28T04:53:40.043Z,0.00
2022-09-28T04:54:15.354Z,0.00
2022-09-28T04:54:50.679Z,2.16
2022-09-28T04:55:25.986Z,2.24
2022-09-28T04:56:01.203Z,2.56
2022-09-28T04:56:36.715Z,3.28
2022-09-28T04:57:11.940Z,3.28
2022-09-28T04:57:47.042Z,2.64
2022-09-28T04:58:22.453Z,3.28
2022-09-28T04:58:57.545Z,4.32
2022-09-28T04:59:32.958Z,4.24
2022-09-28T05:00:08.502Z,1.60
2022-09-28T05:00:43.834Z,2.40
2022-09-28T05:01:18.791Z,2.32
2022-09-28T05:01:54.091Z,1.60
2022-09-28T05:02:29.292Z,0.08
2022-09-28T05:03:04.641Z,0.80
2022-09-28T05:03:39.755Z,0.56
2022-09-28T05:04:15.160Z,0.32
2022-09-28T05:04:50.266Z,0.00
2022-09-28T05:05:25.486Z,0.00
2022-09-28T05:06:00.568Z,0.24
2022-09-28T05:06:35.889Z,0.00
2022-09-28T05:07:10.991Z,0.00
2022-09-28T05:07:46.229Z,0.00
2022-09-28T05:08:21.550Z,0.96
2022-09-28T05:08:56.874Z,0.96
2022-09-28T05:09:34.982Z,1.52
2022-09-28T05:10:07.518Z,1.20
2022-09-28T05:10:43.052Z,7.52
2022-09-28T05:11:18.043Z,1.68
2022-09-28T05:11:53.262Z,2.96
2022-09-28T05:12:28.479Z,2.80
2022-09-28T05:13:03.601Z,4.48
2022-09-28T05:13:38.911Z,4.08
2022-09-28T05:14:14.179Z,4.00
2022-09-28T05:14:49.488Z,3.36
2022-09-28T05:15:24.609Z,9.20
2022-09-28T05:16:04.358Z,8.00
2022-09-28T05:16:35.354Z,5.60
2022-09-28T05:17:10.717Z,5.12
2022-09-28T05:17:45.810Z,2.88
2022-09-28T05:18:21.120Z,2.00
2022-09-28T05:18:56.517Z,5.84
2022-09-28T05:19:31.793Z,3.92
2022-09-28T05:20:07.090Z,3.36
2022-09-28T05:20:42.216Z,2.40
2022-09-28T05:21:17.580Z,3.60
2022-09-28T05:21:52.967Z,4.88
2022-09-28T05:22:27.962Z,5.76
2022-09-28T05:23:03.179Z,3.36
2022-09-28T05:23:38.560Z,2.64
2022-09-28T05:24:13.747Z,5.68
2022-09-28T05:24:48.714Z,3.52
2022-09-28T05:25:23.913Z,2.96
2022-09-28T05:25:59.235Z,2.24
2022-09-28T05:26:34.422Z,1.68
2022-09-28T05:27:09.624Z,4.32
2022-09-28T05:27:45.016Z,4.48
2022-09-28T05:28:20.313Z,3.36
2022-09-28T05:28:55.793Z,3.92
2022-09-28T05:29:32.456Z,4.48
2022-09-28T05:30:06.038Z,2.24
2022-09-28T05:30:41.240Z,1.20
2022-09-28T05:31:16.578Z,2.56
2022-09-28T05:31:51.948Z,2.48
2022-09-28T05:32:27.530Z,0.64
2022-09-28T05:33:02.834Z,3.04
2022-09-28T05:33:38.012Z,1.52
2022-09-28T05:34:13.317Z,0.32
2022-09-28T05:34:48.601Z,0.16
2022-09-28T05:35:24.104Z,0.00
2022-09-28T05:36:01.547Z,1.20
2022-09-28T05:36:34.698Z,4.56
2022-09-28T05:37:09.765Z,4.24
2022-09-28T05:37:45.162Z,2.24
2022-09-28T05:38:20.275Z,3.36
2022-09-28T05:38:55.456Z,3.36
2022-09-28T05:39:31.141Z,4.08
2022-09-28T05:40:06.525Z,2.32
2022-09-28T05:40:41.865Z,2.88
2022-09-28T05:41:17.042Z,2.24
2022-09-28T05:41:52.549Z,4.40
2022-09-28T05:42:27.753Z,6.72
2022-09-28T05:43:03.034Z,3.20
2022-09-28T05:43:38.033Z,5.76
2022-09-28T05:44:13.425Z,3.84
2022-09-28T05:44:48.730Z,3.76
2022-09-28T05:45:23.708Z,3.92
2022-09-28T05:45:58.944Z,3.68
2022-09-28T05:46:34.224Z,3.36
2022-09-28T05:47:09.698Z,4.56
2022-09-28T05:47:45.383Z,6.16
2022-09-28T05:48:20.760Z,3.60
2022-09-28T05:48:55.950Z,1.04
2022-09-28T05:49:31.144Z,2.32
2022-09-28T05:50:06.424Z,3.04
2022-09-28T05:50:41.918Z,3.28
2022-09-28T05:51:17.096Z,2.64
2022-09-28T05:51:52.216Z,1.76
2022-09-28T05:52:27.325Z,4.24
2022-09-28T05:53:02.608Z,3.60
2022-09-28T05:53:37.797Z,3.44
2022-09-28T05:54:13.080Z,3.04
2022-09-28T05:54:48.383Z,5.60
2022-09-28T05:55:23.587Z,5.60
2022-09-28T05:55:58.848Z,4.08
2022-09-28T05:56:34.639Z,2.40
2022-09-28T05:57:10.144Z,5.36
2022-09-28T05:57:45.410Z,3.20
2022-09-28T05:58:20.705Z,4.56
2022-09-28T05:58:56.002Z,3.92
2022-09-28T05:59:31.100Z,3.44
2022-09-28T06:00:06.208Z,4.48
2022-09-28T06:00:41.595Z,4.80
2022-09-28T06:01:16.929Z,1.76
2022-09-28T06:01:52.243Z,3.52
2022-09-28T06:02:27.468Z,2.08
2022-09-28T06:03:05.488Z,4.56
2022-09-28T06:03:37.542Z,1.60
2022-09-28T06:04:12.631Z,3.76
2022-09-28T06:04:48.332Z,2.96
2022-09-28T06:05:23.421Z,2.96
2022-09-28T06:05:58.624Z,1.60
2022-09-28T06:06:33.728Z,3.52
2022-09-28T06:07:09.039Z,1.44
2022-09-28T06:07:44.229Z,1.36
2022-09-28T06:08:19.613Z,3.84
2022-09-28T06:08:54.745Z,2.24
2022-09-28T06:09:30.056Z,0.08
2022-09-28T06:10:05.655Z,0.00
2022-09-28T06:10:41.041Z,1.84
2022-09-28T06:11:16.643Z,1.52
2022-09-28T06:11:51.830Z,2.32
2022-09-28T06:12:26.962Z,4.00
2022-09-28T06:13:02.357Z,4.40
2022-09-28T06:13:38.048Z,3.76
2022-09-28T06:14:13.553Z,2.32
2022-09-28T06:14:48.834Z,1.20
2022-09-28T06:15:24.150Z,1.60
2022-09-28T06:15:59.441Z,3.36
2022-09-28T06:16:35.040Z,2.56
2022-09-28T06:17:10.078Z,4.64
2022-09-28T06:17:45.307Z,6.56
2022-09-28T06:18:20.572Z,4.24
2022-09-28T06:18:55.745Z,3.36
2022-09-28T06:19:30.844Z,2.80
2022-09-28T06:20:06.139Z,2.16
2022-09-28T06:20:41.355Z,2.88
2022-09-28T06:21:16.360Z,3.12
2022-09-28T06:21:51.274Z,2.00
2022-09-28T06:22:26.472Z,2.56
2022-09-28T06:23:01.850Z,1.36
2022-09-28T06:23:37.162Z,4.48
2022-09-28T06:24:12.722Z,4.00
2022-09-28T06:24:47.820Z,3.20
2022-09-28T06:25:23.097Z,3.60
2022-09-28T06:25:58.267Z,4.56
2022-09-28T06:26:33.765Z,3.20
2022-09-28T06:27:09.341Z,0.64
2022-09-28T06:27:44.640Z,2.00
2022-09-28T06:28:19.842Z,3.44
2022-09-28T06:28:55.045Z,3.44
2022-09-28T06:29:30.241Z,3.04
2022-09-28T06:30:05.325Z,2.56
2022-09-28T06:30:40.554Z,1.76
2022-09-28T06:31:15.708Z,3.92
2022-09-28T06:31:50.939Z,2.32
2022-09-28T06:32:26.237Z,2.80
2022-09-28T06:33:01.251Z,1.76
2022-09-28T06:33:36.533Z,1.60
2022-09-28T06:34:11.616Z,1.68
2022-09-28T06:34:46.910Z,1.44
2022-09-28T06:35:22.190Z,0.56
2022-09-28T06:35:57.360Z,4.00
2022-09-28T06:36:32.855Z,3.36
2022-09-28T06:37:08.244Z,0.32
2022-09-28T06:37:43.636Z,2.64
2022-09-28T06:38:18.738Z,2.56
2022-09-28T06:38:54.036Z,2.40
2022-09-28T06:39:29.346Z,0.80
2022-09-28T06:40:04.426Z,0.32
2022-09-28T06:40:39.901Z,4.00
2022-09-28T06:41:15.109Z,2.56
2022-09-28T06:41:50.308Z,4.96
2022-09-28T06:42:25.506Z,2.96
2022-09-28T06:43:00.896Z,2.16
2022-09-28T06:43:36.092Z,3.68
2022-09-28T06:44:11.328Z,2.16
2022-09-28T06:44:46.526Z,1.60
2022-09-28T06:45:21.719Z,0.88
2022-09-28T06:45:56.934Z,0.16
2022-09-28T06:46:32.255Z,2.88
2022-09-28T06:47:07.389Z,4.96
2022-09-28T06:47:42.887Z,1.12
2022-09-28T06:48:18.187Z,2.08
2022-09-28T06:48:53.478Z,2.80
2022-09-28T06:49:28.764Z,4.56
2022-09-28T06:50:04.249Z,3.76
2022-09-28T06:50:39.551Z,1.92
2022-09-28T06:51:14.742Z,4.24
2022-09-28T06:51:50.040Z,2.80
2022-09-28T06:52:25.437Z,3.20
2022-09-28T06:53:00.734Z,2.88
2022-09-28T06:53:36.232Z,0.64
2022-09-28T06:54:11.852Z,2.64
2022-09-28T06:54:47.214Z,1.92
2022-09-28T06:55:22.312Z,2.40
2022-09-28T06:55:57.194Z,3.12
2022-09-28T06:56:33.016Z,1.60
2022-09-28T06:57:07.669Z,0.96
2022-09-28T06:57:42.779Z,0.32
2022-09-28T06:58:17.881Z,2.08
2022-09-28T06:58:53.176Z,1.84
2022-09-28T06:59:28.478Z,2.56
2022-09-28T07:00:03.671Z,4.48
2022-09-28T07:00:38.865Z,3.52
2022-09-28T07:01:14.155Z,3.04
2022-09-28T07:01:49.357Z,3.92
2022-09-28T07:02:24.765Z,2.88
2022-09-28T07:03:00.331Z,0.32
2022-09-28T07:03:35.532Z,0.48
2022-09-28T07:04:10.876Z,0.00
2022-09-28T07:04:46.305Z,0.80
2022-09-28T07:05:21.372Z,1.52
2022-09-28T07:05:56.679Z,2.48
2022-09-28T07:06:32.080Z,3.60
2022-09-28T07:07:07.154Z,4.64
2022-09-28T07:07:42.438Z,2.72
2022-09-28T07:08:17.842Z,3.20
2022-09-28T07:09:04.739Z,2.56
2022-09-28T07:09:32.602Z,2.64
2022-09-28T07:10:03.618Z,0.24
2022-09-28T07:10:38.799Z,1.12
2022-09-28T07:11:14.190Z,0.88
2022-09-28T07:11:49.319Z,0.48
2022-09-28T07:12:24.711Z,0.56
2022-09-28T07:13:00.000Z,1.20
2022-09-28T07:13:49.839Z,2.16
2022-09-28T07:14:14.854Z,0.00
2022-09-28T07:14:48.214Z,0.32
2022-09-28T07:15:21.260Z,1.60
2022-09-28T07:15:56.354Z,3.76
2022-09-28T07:16:50.816Z,1.20
2022-09-28T07:17:14.801Z,1.52
2022-09-28T07:17:55.290Z,2.56
2022-09-28T07:18:17.709Z,2.08
2022-09-28T07:18:52.943Z,1.04
2022-09-28T07:19:28.124Z,3.52
2022-09-28T07:20:15.211Z,2.88
2022-09-28T07:20:50.799Z,2.72
2022-09-28T07:21:25.135Z,0.40
2022-09-28T07:22:00.836Z,0.32
2022-09-28T07:22:38.765Z,0.00
2022-09-28T07:23:09.089Z,0.24
2022-09-28T07:23:44.607Z,0.88
2022-09-28T07:24:10.240Z,0.48
2022-09-28T07:24:45.427Z,0.24
2022-09-28T07:25:20.522Z,2.96
2022-09-28T07:25:56.206Z,0.00
2022-09-28T07:26:31.206Z,0.24
2022-09-28T07:27:06.300Z,1.12
2022-09-28T07:27:41.308Z,3.52
2022-09-28T07:28:16.414Z,3.04
2022-09-28T07:28:52.024Z,0.32
2022-09-28T07:29:27.009Z,0.00
2022-09-28T07:30:02.092Z,0.00
2022-09-28T07:30:37.336Z,0.72
2022-09-28T07:31:12.840Z,1.44
2022-09-28T07:31:47.972Z,1.36
2022-09-28T07:32:23.371Z,1.20
2022-09-28T07:32:58.645Z,0.00
2022-09-28T07:33:33.955Z,2.16
2022-09-28T07:34:09.344Z,3.84
2022-09-28T07:34:44.557Z,3.84
2022-09-28T07:35:20.028Z,3.36
2022-09-28T07:35:55.216Z,4.40
2022-09-28T07:36:30.432Z,2.72
2022-09-28T07:37:05.737Z,2.64
2022-09-28T07:37:40.826Z,2.00
2022-09-28T07:38:15.935Z,3.20
2022-09-28T07:38:51.103Z,3.04
2022-09-28T07:39:26.311Z,1.28
2022-09-28T07:40:01.389Z,0.64
2022-09-28T07:40:36.743Z,0.40
2022-09-28T07:41:11.901Z,2.48
2022-09-28T07:41:47.381Z,3.28
2022-09-28T07:42:22.774Z,2.40
2022-09-28T07:42:58.342Z,1.36
2022-09-28T07:43:33.683Z,0.16
2022-09-28T07:44:08.789Z,0.00
2022-09-28T07:44:43.976Z,2.48
2022-09-28T07:45:19.068Z,2.56
2022-09-28T07:45:54.197Z,1.84
2022-09-28T07:46:29.252Z,4.40
2022-09-28T07:47:04.659Z,3.44
2022-09-28T07:47:39.731Z,3.36
2022-09-28T07:48:14.934Z,3.44
2022-09-28T07:48:50.289Z,1.92
2022-09-28T07:49:25.562Z,0.80
2022-09-28T07:50:00.849Z,0.88